Time;durP1;ratioP1;P1;durP2;ratioP2;P2;SDS_P1;SDS_P2;PMS_P1;PMS_P2;Temp;Humidity;BMP_temperature;BMP_pressure;BME280_temperature;BME280_humidity;BME280_pressure;Samples;Min_cycle;Max_cycle;Signal;HPM_P1;HPM_P2
2023/08/11 00:00:23;;;;;;;2.07;1.97;;;16.10;99.90;;;;;;5059373;28;20437;-70
2023/08/11 00:02:52;;;;;;;1.13;1.03;;;16.00;99.90;;;;;;5059316;28;20416;-69
2023/08/11 00:05:18;;;;;;;4.50;2.00;;;16.00;99.90;;;;;;5059528;28;20451;-69
2023/08/11 00:07:50;;;;;;;1.63;1.53;;;15.60;99.90;;;;;;5059408;28;20896;-70
2023/08/11 00:10:20;;;;;;;1.23;1.13;;;16.00;99.90;;;;;;5059834;28;20770;-71
2023/08/11 00:12:46;;;;;;;0.77;0.77;;;16.00;99.90;;;;;;5059143;28;20424;-71
2023/08/11 00:15:12;;;;;;;1.37;1.13;;;15.90;99.90;;;;;;5059468;28;20821;-70
2023/08/11 00:17:39;;;;;;;1.03;0.67;;;15.70;99.90;;;;;;5059412;28;20413;-69
2023/08/11 00:20:06;;;;;;;1.13;1.13;;;16.00;99.90;;;;;;5059381;28;20461;-70
2023/08/11 00:22:32;;;;;;;1.67;1.57;;;15.90;99.90;;;;;;5058920;28;20948;-70
2023/08/11 00:24:58;;;;;;;1.17;1.10;;;15.90;99.90;;;;;;5055710;28;20496;-70
2023/08/11 00:27:24;;;;;;;1.07;1.07;;;15.60;99.90;;;;;;5055886;28;20447;-69
2023/08/11 00:29:50;;;;;;;1.43;1.43;;;15.40;99.90;;;;;;5056091;28;20407;-71
2023/08/11 00:32:15;;;;;;;1.37;0.97;;;15.60;99.90;;;;;;5055855;28;20619;-69
2023/08/11 00:34:41;;;;;;;0.90;0.90;;;15.90;99.90;;;;;;5055837;28;20257;-70
2023/08/11 00:37:07;;;;;;;1.43;1.20;;;14.80;99.90;;;;;;5055796;28;20177;-70
2023/08/11 00:39:33;;;;;;;0.93;0.90;;;15.30;99.90;;;;;;5056317;28;20174;-69
2023/08/11 00:41:59;;;;;;;1.60;1.50;;;;;;;;;;5055599;28;20792;-69
2023/08/11 00:44:26;;;;;;;2.20;2.10;;;15.90;99.90;;;;;;5055654;28;20415;-70
2023/08/11 00:46:51;;;;;;;0.87;0.87;;;15.50;99.90;;;;;;5055828;28;20448;-69
2023/08/11 00:49:18;;;;;;;1.67;1.57;;;15.60;99.90;;;;;;5055604;28;20441;-69
2023/08/11 00:51:43;;;;;;;2.03;0.83;;;15.60;99.90;;;;;;5055394;28;20446;-70
2023/08/11 00:54:10;;;;;;;0.50;0.50;;;15.40;99.90;;;;;;5055516;28;20404;-70
2023/08/11 00:56:37;;;;;;;0.97;0.97;;;15.30;99.90;;;;;;5055739;28;20177;-70
2023/08/11 00:59:04;;;;;;;0.77;0.77;;;15.70;99.90;;;;;;5055403;28;20505;-71
2023/08/11 01:01:29;;;;;;;1.23;1.13;;;15.60;99.90;;;;;;5055319;28;20459;-70
2023/08/11 01:03:55;;;;;;;0.70;0.70;;;15.40;99.90;;;;;;5055505;28;20441;-70
2023/08/11 01:06:49;;;;;;;2.00;1.07;;;15.70;99.90;;;;;;5055158;28;20280;-70
2023/08/11 01:09:46;;;;;;;4.07;1.33;;;15.70;99.90;;;;;;5055301;28;20179;-70
2023/08/11 01:12:12;;;;;;;2.00;1.90;;;;;;;;;;5054984;28;20429;-70
2023/08/11 01:14:50;;;;;;;1.33;1.33;;;15.20;99.90;;;;;;5055194;28;20741;-71
2023/08/11 01:17:17;;;;;;;1.83;1.57;;;15.50;99.90;;;;;;5055147;28;20404;-69
2023/08/11 01:19:43;;;;;;;1.10;1.10;;;15.30;99.90;;;;;;5055131;28;20409;-70
2023/08/11 01:22:15;;;;;;;5.50;1.93;;;15.10;99.90;;;;;;5054776;28;20843;-69
2023/08/11 01:24:44;;;;;;;1.30;1.20;;;15.30;99.90;;;;;;5055143;28;20409;-69
2023/08/11 01:27:11;;;;;;;0.63;0.63;;;15.10;99.90;;;;;;5055104;28;20455;-70
2023/08/11 01:29:37;;;;;;;0.73;0.73;;;15.20;99.90;;;;;;5054841;28;20465;-71
2023/08/11 01:32:03;;;;;;;2.17;1.23;;;15.50;99.90;;;;;;5054659;28;20417;-70
2023/08/11 01:34:29;;;;;;;2.87;1.83;;;;;;;;;;5054868;28;20752;-68
2023/08/11 01:37:00;;;;;;;1.47;1.37;;;15.60;99.90;;;;;;5054500;28;20427;-69
2023/08/11 01:39:26;;;;;;;2.17;1.97;;;15.90;99.90;;;;;;5054717;28;20948;-71
2023/08/11 01:41:52;;;;;;;3.77;2.47;;;15.90;99.90;;;;;;5054242;28;20476;-70
2023/08/11 01:44:18;;;;;;;2.87;2.77;;;15.60;99.90;;;;;;5054593;28;20409;-70
2023/08/11 01:46:45;;;;;;;0.83;0.83;;;15.60;99.90;;;;;;5054699;28;20454;-69
2023/08/11 01:49:12;;;;;;;1.53;1.43;;;15.20;99.90;;;;;;5054374;28;20436;-71
2023/08/11 01:51:39;;;;;;;1.30;1.03;;;15.60;99.90;;;;;;5054325;28;20421;-71
2023/08/11 01:54:05;;;;;;;2.53;0.97;;;15.20;99.90;;;;;;5054519;28;20415;-70
2023/08/11 01:56:31;;;;;;;1.23;0.90;;;15.50;99.90;;;;;;5054271;28;20769;-70
2023/08/11 01:58:57;;;;;;;2.10;1.50;;;15.10;99.90;;;;;;5054243;28;20409;-69
2023/08/11 02:01:23;;;;;;;1.30;1.20;;;15.30;99.90;;;;;;5054262;28;20486;-70
2023/08/11 02:03:49;;;;;;;1.23;1.10;;;15.30;99.90;;;;;;5054579;28;20174;-69
2023/08/11 02:06:15;;;;;;;3.13;2.17;;;14.90;99.90;;;;;;5054226;28;20516;-69
2023/08/11 02:08:41;;;;;;;1.63;1.53;;;;;;;;;;5054272;28;20205;-70
2023/08/11 02:11:08;;;;;;;1.47;1.37;;;15.20;99.90;;;;;;5053875;28;20186;-69
2023/08/11 02:13:34;;;;;;;2.20;2.00;;;;;;;;;;5054379;28;20434;-70
2023/08/11 02:16:00;;;;;;;0.70;0.70;;;14.80;99.90;;;;;;5053960;28;20454;-70
2023/08/11 02:18:25;;;;;;;2.30;2.20;;;15.30;99.90;;;;;;5054055;28;20951;-71
2023/08/11 02:20:51;;;;;;;1.00;1.00;;;15.00;99.90;;;;;;5053800;28;20206;-70
2023/08/11 02:23:18;;;;;;;1.43;1.33;;;;;;;;;;5053834;28;20197;-70
2023/08/11 02:25:43;;;;;;;1.20;1.17;;;15.10;99.90;;;;;;5053820;28;20478;-70
2023/08/11 02:28:09;;;;;;;2.67;1.40;;;14.90;99.90;;;;;;5053736;28;20551;-70
2023/08/11 02:30:35;;;;;;;1.07;1.00;;;15.90;99.90;;;;;;5053793;28;20484;-70
2023/08/11 02:33:01;;;;;;;2.27;1.43;;;14.80;99.90;;;;;;5053669;28;20177;-69
2023/08/11 02:35:26;;;;;;;1.77;1.67;;;15.30;99.90;;;;;;5053683;28;20877;-69
2023/08/11 02:37:52;;;;;;;0.93;0.93;;;14.90;99.90;;;;;;5053644;28;20184;-69
2023/08/11 02:40:19;;;;;;;0.67;0.63;;;14.90;99.90;;;;;;5053607;28;20670;-71
2023/08/11 02:42:56;;;;;;;1.30;1.20;;;15.20;99.90;;;;;;5053371;28;20204;-70
2023/08/11 02:45:23;;;;;;;1.23;1.00;;;15.20;99.90;;;;;;5053693;28;20487;-70
2023/08/11 02:47:50;;;;;;;1.10;1.10;;;14.90;99.90;;;;;;5052868;28;20452;-70
2023/08/11 02:50:16;;;;;;;1.97;1.83;;;14.90;99.90;;;;;;5053323;28;20432;-70
2023/08/11 02:52:42;;;;;;;1.53;1.43;;;15.00;99.90;;;;;;5053058;28;20433;-70
2023/08/11 02:55:08;;;;;;;1.50;1.27;;;;;;;;;;5053405;28;20169;-69
2023/08/11 02:57:35;;;;;;;3.50;1.17;;;14.90;99.90;;;;;;5053569;28;20261;-71
2023/08/11 03:00:01;;;;;;;1.70;1.57;;;14.60;99.90;;;;;;5053422;28;20813;-71
2023/08/11 03:02:27;;;;;;;3.70;2.30;;;;;;;;;;5053030;28;20433;-71
2023/08/11 03:04:52;;;;;;;1.63;1.30;;;14.70;99.90;;;;;;5053439;28;20488;-70
2023/08/11 03:07:18;;;;;;;1.37;1.27;;;14.90;99.90;;;;;;5053101;28;21064;-70
2023/08/11 03:09:44;;;;;;;1.97;1.27;;;15.20;99.90;;;;;;5053211;28;20174;-70
2023/08/11 03:12:10;;;;;;;1.87;1.00;;;15.10;99.90;;;;;;5052974;28;20204;-70
2023/08/11 03:14:36;;;;;;;1.03;1.03;;;;;;;;;;5051372;28;20170;-71
2023/08/11 03:17:05;;;;;;;1.17;1.17;;;15.10;99.90;;;;;;5051910;28;20429;-69
2023/08/11 03:19:32;;;;;;;2.30;2.10;;;15.00;99.90;;;;;;5053136;28;20454;-70
2023/08/11 03:21:58;;;;;;;1.93;1.47;;;15.10;99.90;;;;;;5051689;28;20521;-69
2023/08/11 03:24:24;;;;;;;2.00;1.37;;;15.00;99.90;;;;;;5052353;28;20766;-69
2023/08/11 03:26:50;;;;;;;1.37;0.70;;;14.80;99.90;;;;;;5053013;28;20626;-69
2023/08/11 03:29:16;;;;;;;1.27;1.17;;;14.60;99.90;;;;;;5051085;28;20174;-70
2023/08/11 03:31:42;;;;;;;2.20;1.87;;;14.50;99.90;;;;;;5052773;28;20439;-70
2023/08/11 03:34:07;;;;;;;1.30;1.20;;;14.50;99.90;;;;;;5052820;28;20480;-69
2023/08/11 03:36:33;;;;;;;1.03;1.03;;;14.80;99.90;;;;;;5053152;28;20184;-69
2023/08/11 03:38:59;;;;;;;1.00;1.00;;;14.60;99.90;;;;;;5053051;28;20693;-68
2023/08/11 03:41:25;;;;;;;1.23;1.13;;;;;;;;;;5052818;28;20200;-70
2023/08/11 03:43:51;;;;;;;2.47;2.10;;;14.80;99.90;;;;;;5052876;28;20182;-69
2023/08/11 03:46:17;;;;;;;2.70;2.13;;;14.60;99.90;;;;;;5052845;28;20457;-70
2023/08/11 03:48:42;;;;;;;1.90;1.27;;;14.70;99.90;;;;;;5052919;28;20443;-69
2023/08/11 03:51:08;;;;;;;2.30;1.80;;;14.70;99.90;;;;;;5052682;28;20188;-70
2023/08/11 03:53:36;;;;;;;1.10;1.00;;;14.20;99.90;;;;;;5052869;28;20170;-70
2023/08/11 03:56:07;;;;;;;0.93;0.93;;;14.60;99.90;;;;;;5053003;28;20408;-70
2023/08/11 03:58:36;;;;;;;0.70;0.70;;;14.60;99.90;;;;;;5053515;28;20467;-70
2023/08/11 04:01:04;;;;;;;3.07;1.37;;;14.40;99.90;;;;;;5056328;28;20428;-70
2023/08/11 04:03:33;;;;;;;0.50;0.50;;;14.50;99.90;;;;;;5056611;28;20415;-70
2023/08/11 04:05:59;;;;;;;2.53;1.63;;;15.30;99.90;;;;;;5056482;28;20407;-69
2023/08/11 04:08:26;;;;;;;1.20;0.90;;;14.70;99.90;;;;;;5056469;28;20406;-70
2023/08/11 04:10:53;;;;;;;1.30;1.20;;;15.00;99.90;;;;;;5056295;28;20408;-70
2023/08/11 04:13:19;;;;;;;1.00;0.80;;;14.50;99.90;;;;;;5056452;28;20493;-69
2023/08/11 04:15:46;;;;;;;0.60;0.60;;;14.70;99.90;;;;;;5056506;28;20411;-70
2023/08/11 04:18:12;;;;;;;0.80;0.80;;;14.70;99.90;;;;;;5056574;28;20409;-70
2023/08/11 04:20:39;;;;;;;0.80;0.80;;;14.50;99.90;;;;;;5056102;28;20436;-69
2023/08/11 04:23:05;;;;;;;1.90;1.10;;;14.40;99.90;;;;;;5056279;28;20415;-69
2023/08/11 04:25:30;;;;;;;1.63;1.53;;;14.70;99.90;;;;;;5056210;28;20472;-70
2023/08/11 04:27:56;;;;;;;1.43;1.37;;;14.60;99.90;;;;;;5054008;28;20209;-70
2023/08/11 04:30:22;;;;;;;1.00;1.00;;;14.50;99.90;;;;;;5055768;28;20239;-70
2023/08/11 04:32:48;;;;;;;0.87;0.63;;;14.70;99.90;;;;;;5056025;28;20830;-71
2023/08/11 04:35:14;;;;;;;2.53;1.67;;;14.70;99.90;;;;;;5055853;28;20404;-70
2023/08/11 04:37:41;;;;;;;0.70;0.70;;;14.70;99.90;;;;;;5056399;28;20627;-70
2023/08/11 04:40:14;;;;;;;1.37;1.27;;;14.80;99.90;;;;;;5055988;28;20175;-70
2023/08/11 04:42:40;;;;;;;0.40;0.40;;;14.80;99.90;;;;;;5055717;28;20432;-69
2023/08/11 04:45:06;;;;;;;1.63;1.53;;;14.70;99.90;;;;;;5055971;28;20412;-70
2023/08/11 04:47:32;;;;;;;1.57;1.47;;;14.70;99.90;;;;;;5055943;28;20453;-71
2023/08/11 04:49:58;;;;;;;1.10;1.00;;;14.80;99.90;;;;;;5055524;28;20456;-70
2023/08/11 04:52:24;;;;;;;3.70;2.13;;;14.80;99.90;;;;;;5053272;28;20420;-68
2023/08/11 04:54:49;;;;;;;1.90;0.93;;;14.90;99.90;;;;;;5054964;28;20404;-70
2023/08/11 04:57:15;;;;;;;0.93;0.90;;;14.90;99.90;;;;;;5055442;28;20218;-70
2023/08/11 04:59:41;;;;;;;1.33;0.70;;;15.00;99.90;;;;;;5055451;28;20648;-69
2023/08/11 05:02:07;;;;;;;1.50;1.40;;;15.10;99.90;;;;;;5055202;28;20279;-71
2023/08/11 05:04:33;;;;;;;1.47;1.37;;;15.00;99.90;;;;;;5055498;28;20174;-71
2023/08/11 05:06:59;;;;;;;0.80;0.80;;;15.00;99.90;;;;;;5055456;28;20202;-69
2023/08/11 05:09:26;;;;;;;1.73;1.63;;;15.00;99.90;;;;;;5055357;28;20407;-71
2023/08/11 05:11:51;;;;;;;2.20;2.10;;;15.20;99.90;;;;;;5054272;28;20482;-69
2023/08/11 05:14:17;;;;;;;6.03;1.90;;;15.60;99.90;;;;;;5055274;28;20405;-70
2023/08/11 05:16:44;;;;;;;3.20;3.00;;;15.70;99.90;;;;;;5055482;28;20178;-69
2023/08/11 05:19:09;;;;;;;1.50;1.47;;;16.10;99.90;;;;;;5055040;28;20448;-69
2023/08/11 05:21:36;;;;;;;2.30;2.20;;;16.50;99.90;;;;;;5054795;28;20433;-69
2023/08/11 05:24:02;;;;;;;2.77;1.90;;;16.70;99.90;;;;;;5054928;28;20591;-71
2023/08/11 05:26:28;;;;;;;1.60;1.50;;;16.90;99.90;;;;;;5055260;28;21033;-70
2023/08/11 05:28:53;;;;;;;2.33;1.93;;;17.20;99.90;;;;;;5054914;28;20413;-69
2023/08/11 05:31:19;;;;;;;1.43;1.33;;;17.40;99.90;;;;;;5054858;28;20232;-70
2023/08/11 05:33:45;;;;;;;2.67;2.43;;;17.50;99.90;;;;;;5054832;28;20249;-69
2023/08/11 05:36:11;;;;;;;0.70;0.70;;;17.60;99.90;;;;;;5054900;28;20178;-71
2023/08/11 05:38:37;;;;;;;1.97;1.87;;;17.80;99.90;;;;;;5054709;28;20409;-70
2023/08/11 05:41:03;;;;;;;1.23;0.80;;;17.90;99.90;;;;;;5054454;28;20187;-71
2023/08/11 05:43:29;;;;;;;0.97;0.83;;;18.10;99.90;;;;;;5054735;28;20175;-69
2023/08/11 05:45:54;;;;;;;0.70;0.70;;;18.50;99.90;;;;;;5053248;28;20657;-69
2023/08/11 05:48:20;;;;;;;0.60;0.60;;;18.80;99.90;;;;;;5054708;28;20551;-69
2023/08/11 05:50:46;;;;;;;2.00;1.90;;;20.00;99.90;;;;;;5054206;28;20675;-71
2023/08/11 05:53:12;;;;;;;1.00;0.90;;;19.90;99.90;;;;;;5054428;28;20420;-69
2023/08/11 05:55:38;;;;;;;1.17;0.77;;;20.70;99.90;;;;;;5054391;28;20591;-71
2023/08/11 05:58:04;;;;;;;0.97;0.80;;;21.10;98.80;;;;;;5054348;28;20411;-70
2023/08/11 06:00:29;;;;;;;1.03;1.03;;;21.30;97.70;;;;;;5054715;28;20430;-70
2023/08/11 06:02:55;;;;;;;1.33;1.23;;;21.10;97.50;;;;;;5054005;28;20674;-70
2023/08/11 06:05:21;;;;;;;1.00;1.00;;;20.90;97.60;;;;;;5054180;28;20201;-70
2023/08/11 06:07:48;;;;;;;0.77;0.77;;;20.70;98.00;;;;;;5054029;28;20200;-70
2023/08/11 06:10:14;;;;;;;2.00;1.30;;;20.10;99.90;;;;;;5054177;28;20449;-70
2023/08/11 06:12:39;;;;;;;1.80;1.10;;;20.50;98.70;;;;;;5053830;28;20519;-70
2023/08/11 06:15:06;;;;;;;1.40;1.30;;;21.50;99.90;;;;;;5052189;28;20497;-71
2023/08/11 06:17:32;;;;;;;3.27;2.80;;;21.50;98.30;;;;;;5053920;28;20208;-70
2023/08/11 06:19:57;;;;;;;3.27;2.97;;;22.10;97.20;;;;;;5053857;28;20412;-70
2023/08/11 06:22:23;;;;;;;0.97;0.97;;;23.00;99.90;;;;;;5050826;28;20193;-70
2023/08/11 06:24:49;;;;;;;0.83;0.70;;;22.90;95.70;;;;;;5053638;28;20174;-70
2023/08/11 06:27:15;;;;;;;0.83;0.83;;;22.90;94.80;;;;;;5054039;28;20456;-70
2023/08/11 06:29:41;;;;;;;0.80;0.80;;;22.70;99.90;;;;;;5053883;28;20177;-70
2023/08/11 06:32:07;;;;;;;0.83;0.83;;;22.70;95.00;;;;;;5053470;28;20428;-71
2023/08/11 06:34:33;;;;;;;1.30;0.70;;;22.60;95.20;;;;;;5053789;28;20832;-69
2023/08/11 06:36:58;;;;;;;1.97;1.00;;;22.50;95.60;;;;;;5053696;28;20415;-71
2023/08/11 06:39:24;;;;;;;0.90;0.90;;;22.40;99.90;;;;;;5053626;28;20533;-70
2023/08/11 06:41:50;;;;;;;0.77;0.73;;;22.40;95.00;;;;;;5053530;28;20202;-70
2023/08/11 06:44:15;;;;;;;0.97;0.97;;;22.50;95.40;;;;;;5053638;28;20180;-70
2023/08/11 06:46:41;;;;;;;2.87;2.00;;;22.70;95.10;;;;;;5053630;28;20244;-71
2023/08/11 06:49:07;;;;;;;4.00;1.23;;;23.30;95.40;;;;;;5053787;28;20186;-70
2023/08/11 06:51:33;;;;;;;0.50;0.50;;;24.10;94.20;;;;;;5053170;28;20472;-71
2023/08/11 06:53:58;;;;;;;1.43;1.20;;;24.20;93.80;;;;;;5053492;28;20212;-71
2023/08/11 06:56:24;;;;;;;1.07;0.90;;;24.20;93.20;;;;;;5053381;28;20198;-71
2023/08/11 06:58:51;;;;;;;0.60;0.60;;;24.10;92.80;;;;;;5053450;28;20232;-70
2023/08/11 07:01:18;;;;;;;0.87;0.80;;;24.00;92.70;;;;;;5053277;28;20190;-70
2023/08/11 07:03:47;;;;;;;0.83;0.80;;;23.90;92.70;;;;;;5053188;28;20423;-70
2023/08/11 07:06:12;;;;;;;0.83;0.83;;;23.70;93.50;;;;;;5053129;28;20416;-71
2023/08/11 07:08:39;;;;;;;0.97;0.87;;;23.60;93.20;;;;;;5053189;28;20766;-69
2023/08/11 07:11:05;;;;;;;1.53;0.80;;;23.50;94.60;;;;;;5053072;28;20213;-70
2023/08/11 07:13:31;;;;;;;1.17;0.70;;;23.40;95.60;;;;;;5053020;28;20412;-70
2023/08/11 07:15:57;;;;;;;1.13;1.03;;;23.50;99.90;;;;;;5053314;28;20416;-70
2023/08/11 07:18:23;;;;;;;0.97;0.90;;;23.60;94.60;;;;;;5053288;28;20825;-70
2023/08/11 07:20:49;;;;;;;0.90;0.90;;;24.10;99.90;;;;;;5052820;28;20265;-71
2023/08/11 07:23:16;;;;;;;0.60;0.60;;;24.20;95.50;;;;;;5053214;28;20408;-72
2023/08/11 07:25:42;;;;;;;0.70;0.70;;;24.60;94.40;;;;;;5053174;28;20405;-71
2023/08/11 07:28:08;;;;;;;1.23;1.03;;;25.00;94.60;;;;;;5052916;28;20423;-71
2023/08/11 07:30:35;;;;;;;0.53;0.53;;;25.30;93.10;;;;;;5053184;28;20382;-72
2023/08/11 07:33:02;;;;;;;1.43;1.33;;;25.50;92.60;;;;;;5052902;28;20185;-70
2023/08/11 07:35:28;;;;;;;1.03;0.97;;;25.90;99.90;;;;;;5055664;28;20413;-71
2023/08/11 07:37:54;;;;;;;0.67;0.67;;;26.70;99.90;;;;;;5055483;28;20405;-70
2023/08/11 07:40:20;;;;;;;1.13;0.70;;;26.50;91.80;;;;;;5056686;28;20376;-71
2023/08/11 07:42:46;;;;;;;3.30;1.80;;;27.60;90.50;;;;;;5057151;28;20521;-73
2023/08/11 07:45:11;;;;;;;1.40;1.30;;;29.00;83.60;;;;;;5054921;28;20223;-72
2023/08/11 07:47:38;;;;;;;0.80;0.80;;;30.30;80.20;;;;;;5056203;28;20539;-71
2023/08/11 07:50:04;;;;;;;1.00;1.00;;;31.60;74.20;;;;;;5056479;28;20190;-73
2023/08/11 07:52:30;;;;;;;1.37;1.03;;;32.90;69.90;;;;;;5056516;28;20876;-69
2023/08/11 07:54:55;;;;;;;0.73;0.73;;;34.20;64.20;;;;;;5056807;28;20401;-71
2023/08/11 07:57:21;;;;;;;1.37;1.27;;;35.80;59.30;;;;;;5056832;28;20175;-71
2023/08/11 07:59:46;;;;;;;0.80;0.80;;;37.30;54.30;;;;;;5056739;28;20170;-70
2023/08/11 08:02:13;;;;;;;1.43;0.80;;;38.60;50.50;;;;;;5056234;28;20190;-70
2023/08/11 08:04:38;;;;;;;0.80;0.80;;;39.70;47.10;;;;;;5055354;28;20253;-71
2023/08/11 08:07:04;;;;;;;2.40;0.80;;;40.70;44.00;;;;;;5055148;28;20897;-71
2023/08/11 08:09:33;;;;;;;0.63;0.60;;;41.20;41.70;;;;;;5056553;28;20170;-72
2023/08/11 08:12:00;;;;;;;0.83;0.83;;;41.80;39.70;;;;;;5054736;28;20186;-71
2023/08/11 08:14:26;;;;;;;0.70;0.70;;;42.50;39.00;;;;;;5055440;28;20401;-70
2023/08/11 08:16:52;;;;;;;0.80;0.80;;;43.10;37.80;;;;;;5056332;28;20431;-71
2023/08/11 08:19:20;;;;;;;1.30;0.73;;;;;;;;;;5056240;28;20506;-72
2023/08/11 08:21:46;;;;;;;0.90;0.80;;;43.50;35.70;;;;;;5055963;28;20186;-71
2023/08/11 08:24:14;;;;;;;0.63;0.60;;;43.40;34.60;;;;;;5056286;28;20453;-72
2023/08/11 08:26:40;;;;;;;1.87;1.37;;;43.00;33.90;;;;;;5056249;28;20537;-71
2023/08/11 08:29:06;;;;;;;0.97;0.87;;;42.70;34.40;;;;;;5055865;28;20439;-70
2023/08/11 08:31:33;;;;;;;0.50;0.50;;;42.30;33.70;;;;;;5055623;28;20421;-71
2023/08/11 08:34:00;;;;;;;1.00;1.00;;;41.70;34.30;;;;;;5055973;28;20411;-71
2023/08/11 08:36:25;;;;;;;0.77;0.77;;;41.30;34.80;;;;;;5055819;28;20420;-72
2023/08/11 08:38:51;;;;;;;0.90;0.90;;;40.80;35.10;;;;;;5056021;28;20408;-72
2023/08/11 08:41:23;;;;;;;0.70;0.70;;;40.70;33.70;;;;;;5055684;28;20650;-71
2023/08/11 08:43:50;;;;;;;0.80;0.73;;;40.30;34.00;;;;;;5055703;28;20253;-71
2023/08/11 08:46:20;;;;;;;0.50;0.50;;;40.20;34.90;;;;;;5054729;28;20496;-72
2023/08/11 08:49:11;;;;;;;0.70;0.67;;;40.00;34.80;;;;;;5055565;28;20428;-71
2023/08/11 08:51:39;;;;;;;0.73;0.70;;;40.00;36.30;;;;;;5055564;28;20826;-71
2023/08/11 08:54:08;;;;;;;2.70;1.00;;;40.40;36.50;;;;;;5055733;28;20404;-71
2023/08/11 08:56:36;;;;;;;1.20;1.10;;;41.10;36.80;;;;;;5056166;28;20405;-71
2023/08/11 08:59:01;;;;;;;1.40;1.10;;;41.10;34.10;;;;;;5055622;28;20400;-71
2023/08/11 09:01:28;;;;;;;1.07;0.80;;;41.10;34.00;;;;;;5055182;28;20528;-71
2023/08/11 09:03:55;;;;;;;1.07;0.70;;;41.50;34.70;;;;;;5055601;28;20652;-71
2023/08/11 09:06:21;;;;;;;1.10;0.60;;;41.50;33.40;;;;;;5055413;28;20478;-70
2023/08/11 09:08:47;;;;;;;0.73;0.60;;;41.40;33.40;;;;;;5053358;28;20500;-70
2023/08/11 09:11:13;;;;;;;1.80;1.20;;;41.30;33.90;;;;;;5054943;28;20536;-71
2023/08/11 09:13:38;;;;;;;1.73;1.63;;;41.20;33.60;;;;;;5054611;28;20198;-71
2023/08/11 09:16:04;;;;;;;0.83;0.67;;;40.90;35.60;;;;;;5052405;28;20171;-72
2023/08/11 09:18:30;;;;;;;1.17;1.07;;;41.20;34.00;;;;;;5054290;28;20605;-71
2023/08/11 09:20:56;;;;;;;1.13;0.83;;;41.50;51.90;;;;;;5054493;28;20501;-71
2023/08/11 09:23:21;;;;;;;1.00;0.90;;;41.30;34.60;;;;;;5054233;28;20407;-71
2023/08/11 09:25:47;;;;;;;0.80;0.80;;;;;;;;;;5054173;28;20167;-70
2023/08/11 09:28:14;;;;;;;0.80;0.73;;;40.70;33.80;;;;;;5054362;28;20198;-72
2023/08/11 09:30:42;;;;;;;0.90;0.90;;;40.60;32.90;;;;;;5054872;28;20753;-70
2023/08/11 09:33:08;;;;;;;1.33;0.90;;;40.60;33.40;;;;;;5054977;28;20753;-72
2023/08/11 09:35:34;;;;;;;0.60;0.60;;;40.50;34.40;;;;;;5054772;28;20401;-72
2023/08/11 09:38:00;;;;;;;1.13;1.03;;;40.60;34.70;;;;;;5054806;28;20181;-70
2023/08/11 09:40:26;;;;;;;1.57;1.47;;;39.10;34.10;;;;;;5054682;28;20408;-72
2023/08/11 09:42:56;;;;;;;1.90;1.30;;;39.10;34.60;;;;;;5052961;28;20252;-70
2023/08/11 09:45:23;;;;;;;1.57;1.43;;;38.40;37.80;;;;;;5054614;28;20926;-71
2023/08/11 09:47:49;;;;;;;0.70;0.70;;;37.80;36.20;;;;;;5054643;28;20452;-71
2023/08/11 09:50:15;;;;;;;0.70;0.70;;;;;;;;;;5054439;28;20421;-71
2023/08/11 09:52:42;;;;;;;0.93;0.73;;;36.10;37.00;;;;;;5054244;28;20190;-70
2023/08/11 09:55:09;;;;;;;0.93;0.93;;;35.60;38.60;;;;;;5054715;28;20433;-71
2023/08/11 09:57:37;;;;;;;0.90;0.80;;;35.10;39.80;;;;;;5054200;28;20412;-72
2023/08/11 10:00:05;;;;;;;2.20;0.80;;;35.00;40.80;;;;;;5054550;28;20959;-71
2023/08/11 10:02:35;;;;;;;1.33;1.00;;;35.30;41.60;;;;;;5054031;28;20429;-71
2023/08/11 10:05:06;;;;;;;0.90;0.90;;;35.40;40.40;;;;;;5054177;28;20442;-72
2023/08/11 10:07:37;;;;;;;0.90;0.90;;;34.80;41.90;;;;;;5054272;28;20453;-71
2023/08/11 10:10:14;;;;;;;1.00;0.80;;;34.80;42.70;;;;;;5054129;28;20409;-71
2023/08/11 10:12:47;;;;;;;0.90;0.90;;;34.90;43.40;;;;;;5053931;28;20967;-70
2023/08/11 10:15:16;;;;;;;1.27;0.90;;;35.50;44.20;;;;;;5054257;28;20926;-72
2023/08/11 10:17:42;;;;;;;1.20;1.00;;;35.60;42.90;;;;;;5053946;28;20908;-72
2023/08/11 10:20:09;;;;;;;1.27;1.03;;;35.30;43.40;;;;;;5052652;28;20401;-72
2023/08/11 10:22:35;;;;;;;2.17;1.97;;;35.30;44.70;;;;;;5052399;28;20914;-70
2023/08/11 10:25:06;;;;;;;1.90;1.13;;;34.80;44.70;;;;;;5053673;28;20504;-72
2023/08/11 10:27:32;;;;;;;1.10;1.10;;;34.70;46.40;;;;;;5053803;28;20194;-71
2023/08/11 10:30:01;;;;;;;1.13;1.03;;;34.80;45.40;;;;;;5053723;28;20404;-71
2023/08/11 10:32:33;;;;;;;1.00;0.90;;;34.80;47.60;;;;;;5053563;28;20452;-71
2023/08/11 10:34:58;;;;;;;1.20;1.10;;;34.80;45.90;;;;;;5053702;28;20393;-71
2023/08/11 10:37:34;;;;;;;1.00;0.63;;;34.70;46.40;;;;;;5053667;28;20512;-70
2023/08/11 10:40:04;;;;;;;1.07;1.00;;;34.80;46.70;;;;;;5053804;28;20174;-69
2023/08/11 10:42:30;;;;;;;2.00;0.80;;;34.70;45.20;;;;;;5053263;28;20433;-70
2023/08/11 10:45:10;;;;;;;0.63;0.60;;;34.60;45.60;;;;;;5053572;28;20415;-70
2023/08/11 10:47:38;;;;;;;0.93;0.77;;;34.10;46.60;;;;;;5053731;28;20454;-70
2023/08/11 10:50:08;;;;;;;1.10;1.00;;;33.60;48.10;;;;;;5053436;28;20424;-72
2023/08/11 10:52:34;;;;;;;1.37;1.27;;;;;;;;;;5053264;28;20435;-70
2023/08/11 10:55:02;;;;;;;1.23;0.80;;;32.10;48.20;;;;;;5053336;28;20454;-70
2023/08/11 10:57:33;;;;;;;1.23;1.03;;;32.10;48.40;;;;;;5053544;28;20401;-71
2023/08/11 10:59:59;;;;;;;1.23;1.23;;;31.80;49.50;;;;;;5053402;28;20401;-71
2023/08/11 11:02:25;;;;;;;1.27;1.07;;;31.70;50.80;;;;;;5053088;28;20943;-71
2023/08/11 11:04:52;;;;;;;1.00;0.90;;;31.50;51.50;;;;;;5053258;28;20578;-72
2023/08/11 11:07:22;;;;;;;1.47;0.70;;;31.20;51.40;;;;;;5053289;28;20284;-69
2023/08/11 11:09:47;;;;;;;1.23;0.90;;;30.90;53.30;;;;;;5052823;28;20397;-70
2023/08/11 11:12:14;;;;;;;0.93;0.93;;;30.80;53.20;;;;;;5053016;28;20458;-71
2023/08/11 11:14:40;;;;;;;0.60;0.60;;;30.60;47.90;;;;;;5053280;28;20568;-70
2023/08/11 11:17:06;;;;;;;1.47;0.70;;;30.40;48.00;;;;;;5053236;28;20427;-71
2023/08/11 11:19:33;;;;;;;1.33;1.00;;;30.20;50.50;;;;;;5053409;28;20405;-70
2023/08/11 11:21:59;;;;;;;0.80;0.70;;;30.00;49.90;;;;;;5052991;28;20473;-70
2023/08/11 11:24:25;;;;;;;0.93;0.93;;;;;;;;;;5053116;28;20466;-70
2023/08/11 11:26:51;;;;;;;1.73;0.70;;;30.10;49.10;;;;;;5053050;28;21009;-69
2023/08/11 11:29:23;;;;;;;1.33;1.10;;;30.20;50.10;;;;;;5051812;28;20425;-71
2023/08/11 11:31:49;;;;;;;0.97;0.67;;;30.30;48.80;;;;;;5052954;28;20190;-71
2023/08/11 11:34:15;;;;;;;0.90;0.87;;;30.30;49.60;;;;;;5053136;28;20405;-71
2023/08/11 11:36:41;;;;;;;0.73;0.73;;;30.50;53.30;;;;;;5052881;28;20419;-69
2023/08/11 11:39:08;;;;;;;1.07;0.77;;;30.50;47.70;;;;;;5053158;28;20543;-71
2023/08/11 11:41:33;;;;;;;1.80;0.70;;;30.20;48.20;;;;;;5052750;28;20593;-71
2023/08/11 11:43:59;;;;;;;0.60;0.60;;;30.10;48.60;;;;;;5052870;28;20500;-70
2023/08/11 11:46:25;;;;;;;0.57;0.57;;;30.10;48.60;;;;;;5052758;28;20257;-69
2023/08/11 11:48:53;;;;;;;0.80;0.80;;;29.80;47.40;;;;;;5052896;28;20190;-71
2023/08/11 11:51:30;;;;;;;1.50;0.60;;;29.70;51.00;;;;;;5052533;28;20433;-70
2023/08/11 11:54:00;;;;;;;0.77;0.77;;;29.80;51.20;;;;;;5053271;28;20400;-71
2023/08/11 11:56:29;;;;;;;0.80;0.77;;;29.70;49.30;;;;;;5052862;28;20407;-69
2023/08/11 11:58:56;;;;;;;0.87;0.87;;;29.70;48.50;;;;;;5052891;28;20759;-71
2023/08/11 12:01:26;;;;;;;0.93;0.70;;;29.70;48.80;;;;;;5052523;28;20994;-70
2023/08/11 12:03:55;;;;;;;0.83;0.83;;;29.70;47.10;;;;;;5052659;28;20420;-70
2023/08/11 12:06:21;;;;;;;2.00;1.13;;;29.70;48.50;;;;;;5052681;28;20762;-71
2023/08/11 12:08:51;;;;;;;1.13;0.73;;;29.70;50.20;;;;;;5052709;28;20401;-71
2023/08/11 12:11:25;;;;;;;0.90;0.80;;;29.70;49.40;;;;;;5052473;28;20195;-70
2023/08/11 12:13:51;;;;;;;0.77;0.77;;;29.60;49.60;;;;;;5052672;28;20389;-70
2023/08/11 12:16:17;;;;;;;0.60;0.60;;;29.50;47.90;;;;;;5052756;28;20409;-71
2023/08/11 12:18:43;;;;;;;0.60;0.60;;;29.40;47.90;;;;;;5052898;28;20505;-70
2023/08/11 12:21:10;;;;;;;1.43;0.80;;;29.40;48.10;;;;;;5055478;28;20186;-69
2023/08/11 12:23:35;;;;;;;1.03;0.93;;;29.30;47.40;;;;;;5056206;28;20432;-71
2023/08/11 12:26:01;;;;;;;0.53;0.53;;;29.30;46.00;;;;;;5056298;28;20459;-72
2023/08/11 12:28:27;;;;;;;0.60;0.60;;;29.30;47.00;;;;;;5055045;28;20267;-70
2023/08/11 12:30:53;;;;;;;0.70;0.70;;;29.20;71.90;;;;;;5056062;28;20166;-70
2023/08/11 12:33:19;;;;;;;1.07;0.57;;;29.00;47.50;;;;;;5056020;28;20542;-71
2023/08/11 12:35:47;;;;;;;0.97;0.97;;;29.10;48.80;;;;;;5056023;28;20662;-69
2023/08/11 12:38:13;;;;;;;0.77;0.70;;;29.10;48.10;;;;;;5056116;28;20174;-69
2023/08/11 12:40:40;;;;;;;0.83;0.67;;;29.10;49.40;;;;;;5055889;28;20416;-70
2023/08/11 12:43:06;;;;;;;1.33;1.13;;;;;;;;;;5055849;28;20178;-70
2023/08/11 12:45:32;;;;;;;1.10;1.00;;;29.20;50.60;;;;;;5055733;28;20547;-71
2023/08/11 12:47:58;;;;;;;0.77;0.60;;;29.10;47.10;;;;;;5055686;28;20460;-71
2023/08/11 12:50:28;;;;;;;0.80;0.80;;;29.00;48.10;;;;;;5055593;28;20665;-71